Data for 11/23/2015

Time Sea-Level Adjusted Pressure Absolute Pressure Temperature Relative Humidity Dew Point   
(mb) (inHg) (mb) (inHg) (C) (F) (%) (C) (F)
00:05 1018 30.06 847 25.01 0.6 33.1 50 -8.5 16.7
00:10 1018 30.06 847 25.01 1.3 34.3 48 -8.7 16.4
00:15 1018 30.06 847 25.01 1.5 34.7 48 -8.4 16.9
00:20 1018 30.06 847 25.01 1.5 34.7 48 -8.4 16.9
00:25 1018 30.06 847 25.01 1.2 34.1 48 -8.6 16.5
00:30 1018 30.06 847 25.01 0.7 33.3 49 -8.7 16.3
00:35 1018 30.06 847 25.01 0.2 32.3 51 -8.8 16.2
00:40 1018 30.06 847 25.01 -0.3 31.4 53 -8.8 16.2
00:45 1018 30.06 847 25.01 -0.5 31.1 53 -9 15.7
00:50 1018 30.06 847 25.01 -0.3 31.5 51 -9.2 15.5
00:55 1018 30.06 847 25.01 -0 32 51 -9 15.7
01:00 1018 30.06 847 25.01 0.1 32.2 51 -8.8 16.1
01:05 1018 30.06 847 25.01 -0.2 31.7 54 -8.5 16.7
01:10 1018 30.06 847 25.01 -0.4 31.2 58 -7.8 18
01:15 1018 30.06 847 25.01 -0.8 30.5 58 -8 17.6
01:20 1018 30.06 847 25.01 -1.3 29.7 60 -8 17.6
01:25 1018 30.06 847 25.01 -0.4 31.3 53 -8.8 16.1
01:30 1018 30.06 847 25.01 0.2 32.3 54 -8 17.7
01:35 1018 30.06 847 25.01 -0.5 31.1 56 -8.3 17.1
01:40 1018 30.06 847 25.01 -1.1 30.1 57 -8.4 16.8
01:45 1018 30.06 847 25.01 -0.3 31.5 52 -9 15.9
01:50 1018 30.06 847 25.01 -0.4 31.4 55 -8.4 16.8
01:55 1018 30.06 847 25.01 -0.9 30.4 53 -9.4 15.1
02:00 1018 30.06 847 25.01 -0.9 30.4 52 -9.6 14.7
02:05 1018 30.06 847 25.01 -1 30.3 52 -9.7 14.5
02:10 1018 30.06 847 25.01 -1.1 30 52 -9.8 14.3
02:15 1018 30.06 847 25.01 -0.9 30.4 50 -10 14
02:20 1018 30.06 847 25.01 -0.6 31 50 -9.8 14.3
02:25 1018 30.06 847 25.01 -0.5 31.1 50 -9.7 14.5
02:30 1018 30.06 847 25.01 -0.5 31.1 51 -9.6 14.8
02:35 1018 30.06 847 25.01 -0.8 30.6 50 -9.9 14.3
02:40 1018 30.06 847 25.01 -0.9 30.3 50 -10.1 13.9
02:45 1018 30.06 847 25.01 -0.9 30.4 50 -10 14
02:50 1018 30.06 847 25.01 -0.8 30.5 50 -10 14
02:55 1018 30.06 847 25.01 -0.6 30.9 50 -9.8 14.4
03:00 1018 30.06 847 25.01 -0.6 31 49 -10.1 13.8
03:05 1018 30.06 847 25.01 -0.6 30.9 53 -9 15.8
03:10 1018 30.06 847 25.01 -1.5 29.3 54 -9.6 14.8
03:15 1018 30.06 847 25.01 -1.5 29.3 54 -9.7 14.6
03:20 1018 30.06 847 25.01 -0.8 30.6 51 -9.7 14.6
03:25 1018 30.06 847 25.01 -1.2 29.9 53 -9.4 15
03:30 1018 30.06 847 25.01 -1.5 29.2 51 -10.4 13.2
03:35 1018 30.06 847 25.01 -1.4 29.4 52 -10.2 13.7
03:40 1018 30.06 847 25.01 -1.6 29.1 52 -10.2 13.7
03:45 1018 30.06 847 25.01 -1.5 29.2 52 -10.1 13.8
03:50 1017 30.03 847 25.01 -1.5 29.3 56 -9.2 15.5
03:55 1017 30.03 847 25.01 -2 28.4 58 -9.2 15.4
04:00 1017 30.03 847 25.01 -2.5 27.6 60 -9.3 15.3
04:05 1017 30.03 847 25.01 -2.7 27.1 59 -9.5 14.8
04:10 1017 30.03 847 25.01 -2.9 26.8 61 -9.3 15.3
04:15 1017 30.03 847 25.01 -2.9 26.7 60 -9.6 14.8
04:20 1017 30.03 846 24.98 -2.4 27.8 56 -9.9 14.2
04:25 1017 30.03 846 24.98 -1.6 29.2 54 -9.8 14.4
04:30 1017 30.03 846 24.98 -1.2 29.8 54 -9.4 15.1
04:35 1017 30.03 846 24.98 -1.9 28.6 57 -9.3 15.2
04:40 1017 30.03 846 24.98 -2.5 27.5 59 -9.4 15.1
04:45 1017 30.03 846 24.98 -2.4 27.7 56 -10.1 13.8
04:50 1017 30.03 846 24.98 -1.8 28.7 53 -10.2 13.6
04:55 1017 30.03 846 24.98 -1.1 29.9 51 -9.9 14.1
05:00 1017 30.03 846 24.98 -1.1 30 49 -10.6 12.9
05:05 1017 30.03 846 24.98 -1 30.1 52 -9.7 14.5
05:10 1017 30.03 846 24.98 -1.3 29.6 54 -9.5 14.9
05:15 1017 30.03 846 24.98 -2.1 28.2 57 -9.5 15
05:20 1017 30.03 846 24.98 -2.9 26.7 60 -9.7 14.5
05:25 1017 30.03 846 24.98 -3.2 26.2 61 -9.8 14.4
05:30 1017 30.03 846 24.98 -3.4 25.9 61 -10 14.1
05:35 1017 30.03 846 24.98 -3.2 26.3 60 -9.9 14.1
05:40 1017 30.03 846 24.98 -3.6 25.6 62 -9.8 14.4
05:45 1017 30.03 846 24.98 -4.2 24.5 64 -10 14
05:50 1017 30.03 846 24.98 -3.6 25.4 60 -10.4 13.3
05:55 1017 30.03 846 24.98 -3.1 26.5 58 -10.3 13.5
06:00 1017 30.03 846 24.98 -2.6 27.4 54 -10.6 13
06:05 1017 30.03 846 24.98 -2.1 28.3 53 -10.4 13.2
06:10 1017 30.03 846 24.98 -1.9 28.6 53 -10.4 13.4
06:15 1017 30.03 846 24.98 -2.1 28.3 53 -10.5 13
06:20 1017 30.03 846 24.98 -2.1 28.2 50 -11.3 11.7
06:25 1017 30.03 846 24.98 -2 28.4 50 -11.2 11.8
06:30 1017 30.03 846 24.98 -2.1 28.2 49 -11.5 11.3
06:35 1017 30.03 846 24.98 -2 28.4 48 -11.6 11.2
06:40 1017 30.03 846 24.98 -1.8 28.7 47 -11.8 10.7
06:45 1017 30.03 846 24.98 -1.7 29 47 -11.7 10.9
06:50 1016 30 846 24.98 -1.3 29.7 49 -10.8 12.5
06:55 1016 30 846 24.98 -1.5 29.4 45 -11.9 10.6
07:00 1016 30 846 24.98 -1.2 29.8 46 -11.5 11.3
07:05 1016 30 845 24.95 -1.2 29.8 43 -12.4 9.7
07:10 1016 30 845 24.95 -0.9 30.4 42 -12.3 9.9
07:15 1016 30 845 24.95 -1.2 29.9 44 -11.9 10.5
07:20 1016 30 845 24.95 -1.8 28.8 53 -10.2 13.7
07:25 1016 30 845 24.95 -2.9 26.8 57 -10.2 13.7
07:30 1016 30 845 24.95 -2.7 27.2 53 -10.9 12.4
07:35 1016 30 845 24.95 -2 28.4 52 -10.6 12.9
07:40 1016 30 845 24.95 -2.1 28.2 54 -10.2 13.6
07:45 1016 30 845 24.95 -2.4 27.6 54 -10.6 12.9
07:50 1016 30 845 24.95 -2.1 28.2 51 -10.9 12.3
07:55 1016 30 845 24.95 -1.6 29.2 48 -11.2 11.8
08:00 1016 30 845 24.95 -1.1 30.1 52 -9.9 14.3
08:05 1016 30 845 24.95 -2.3 27.9 52 -10.8 12.6
08:10 1016 30 845 24.95 -2.1 28.3 50 -11 12.1
08:15 1016 30 845 24.95 -1.8 28.8 51 -10.7 12.7
08:20 1016 30 845 24.95 -2 28.3 52 -10.6 13
08:25 1016 30 845 24.95 -2.2 28 53 -10.7 12.8
08:30 1016 30 845 24.95 -2.4 27.7 54 -10.4 13.2
08:35 1016 30 845 24.95 -2.9 26.8 56 -10.4 13.2
08:40 1016 30 845 24.95 -3 26.6 56 -10.6 12.9
08:45 1016 30 845 24.95 -3.4 25.9 57 -10.7 12.7
08:50 1016 30 845 24.95 -3.5 25.7 56 -11 12.2
08:55 1016 30 845 24.95 -3.3 26.1 54 -11.3 11.7
09:00 1016 30 845 24.95 -2.3 27.8 50 -11.4 11.5
09:05 1016 30 845 24.95 -1.9 28.5 50 -11 12.2
09:10 1016 30 845 24.95 -1.5 29.2 47 -11.4 11.5
09:15 1016 30 845 24.95 -1.1 29.9 46 -11.3 11.7
09:20 1016 30 845 24.95 -1.1 30.1 47 -11 12.2
09:25 1016 30 845 24.95 -1.2 29.8 48 -10.9 12.3
09:30 1016 30 845 24.95 -1.6 29.2 49 -10.9 12.3
09:35 1016 30 845 24.95 -1.6 29.2 50 -10.8 12.6
09:40 1016 30 845 24.95 -1.4 29.5 48 -10.9 12.4
09:45 1016 30 845 24.95 -1.2 29.8 48 -10.9 12.5
09:50 1016 30 845 24.95 -0.9 30.4 48 -10.6 13
09:55 1016 30 845 24.95 -0.3 31.5 47 -10.3 13.5
10:00 1016 30 845 24.95 -0.3 31.4 46 -10.7 12.8
10:05 1016 30 845 24.95 -0.1 31.8 43 -11.2 11.8
10:10 1016 30 845 24.95 0.6 33 42 -11 12.1
10:15 1016 30 845 24.95 1 33.8 41 -10.9 12.4
10:20 1016 30 845 24.95 1.2 34.2 40 -11 12.3
10:25 1016 30 845 24.95 1.4 34.5 43 -9.9 14.1
10:30 1016 30 845 24.95 1.3 34.3 40 -10.8 12.6
10:35 1016 30 845 24.95 1.5 34.7 43 -9.9 14.2
10:40 1016 30 845 24.95 1.6 34.9 41 -10.2 13.7
10:45 1016 30 845 24.95 1.9 35.5 40 -10.4 13.3
10:50 1016 30 845 24.95 2.4 36.3 39 -10.3 13.4
10:55 1016 30 845 24.95 2.8 37.1 37 -10.5 13
11:00 1016 30 845 24.95 2.8 37.1 36 -10.9 12.4
11:05 1016 30 845 24.95 2.8 37.1 35 -11.2 11.8
11:10 1016 30 845 24.95 3 37.4 34 -11.2 11.8
11:15 1016 30 845 24.95 3.5 38.4 34 -11.1 12
11:20 1016 30 845 24.95 4 39.2 32 -11.4 11.4
11:25 1016 30 845 24.95 4.2 39.5 30 -11.8 10.8
11:30 1015 29.97 845 24.95 4.5 40.1 30 -11.6 11.2
11:35 1015 29.97 845 24.95 4.8 40.7 29 -11.9 10.5
11:40 1015 29.97 845 24.95 5.2 41.3 27 -12.3 9.9
11:45 1015 29.97 844 24.92 4.8 40.7 28 -12.1 10.2
11:50 1015 29.97 844 24.92 4.5 40.1 30 -11.7 10.9
11:55 1015 29.97 844 24.92 4.9 40.8 29 -11.9 10.5
12:00 1015 29.97 844 24.92 5.4 41.7 30 -11.1 12.1
12:05 1015 29.97 844 24.92 5.6 42.1 29 -10.9 12.3
12:10 1015 29.97 844 24.92 5.4 41.7 28 -11.5 11.3
12:15 1015 29.97 844 24.92 5.4 41.7 29 -11.1 12.1
12:20 1015 29.97 844 24.92 5.3 41.6 30 -11 12.3
12:25 1015 29.97 844 24.92 5.6 42.1 30 -10.6 13
12:30 1014 29.94 844 24.92 6.1 43 28 -11.3 11.7
12:35 1014 29.94 844 24.92 6.3 43.4 28 -11.1 12.1
12:40 1014 29.94 844 24.92 6.5 43.6 27 -11 12.1
12:45 1014 29.94 843 24.89 6.7 44.1 28 -10.6 12.9
12:50 1014 29.94 843 24.89 7 44.7 28 -10.4 13.2
12:55 1014 29.94 843 24.89 6.9 44.4 27 -10.7 12.8
13:00 1014 29.94 843 24.89 7.3 45.1 27 -10.7 12.8
13:05 1014 29.94 843 24.89 7.2 45 27 -10.5 13.1
13:10 1014 29.94 843 24.89 7.2 44.9 30 -9.4 15
13:15 1014 29.94 843 24.89 6.8 44.2 30 -9.6 14.8
13:20 1013 29.91 843 24.89 5.9 42.6 30 -10.3 13.5
13:25 1013 29.91 843 24.89 6.2 43.1 31 -9.9 14.2
13:30 1013 29.91 843 24.89 6.6 43.9 31 -9.4 15.1
13:35 1013 29.91 842 24.86 7 44.7 29 -9.8 14.4
13:40 1013 29.91 842 24.86 7.5 45.6 30 -9 15.8
13:45 1013 29.91 842 24.86 7.7 45.9 28 -9.5 14.8
13:50 1013 29.91 842 24.86 7 44.6 31 -8.9 16
13:55 1013 29.91 842 24.86 7.5 45.4 29 -9.2 15.4
14:00 1013 29.91 842 24.86 7.8 46 30 -8.7 16.3
14:05 1013 29.91 842 24.86 8.2 46.7 28 -9.2 15.4
14:10 1013 29.91 842 24.86 8.2 46.8 29 -9 15.9
14:15 1013 29.91 842 24.86 8.2 46.8 29 -8.8 16.2
14:20 1013 29.91 842 24.86 7.9 46.2 30 -8.5 16.7
14:25 1013 29.91 842 24.86 7.3 45.2 31 -8.8 16.2
14:30 1012 29.88 842 24.86 7.6 45.6 30 -8.7 16.3
14:35 1012 29.88 842 24.86 8.1 46.5 30 -8.6 16.5
14:40 1012 29.88 842 24.86 8.5 47.3 29 -8.6 16.6
14:45 1012 29.88 842 24.86 8.1 46.6 29 -8.7 16.4
14:50 1012 29.88 841 24.83 8.5 47.2 28 -9 15.7
14:55 1012 29.88 841 24.83 7.9 46.2 29 -8.9 16
15:00 1012 29.88 841 24.83 7.7 45.8 30 -9 15.8
15:05 1012 29.88 841 24.83 7.9 46.2 30 -8.6 16.6
15:10 1012 29.88 841 24.83 6.7 44.1 31 -9.1 15.6
15:15 1012 29.88 841 24.83 7 44.6 31 -8.9 16
15:20 1012 29.88 841 24.83 7.6 45.7 29 -9.1 15.5
15:25 1012 29.88 841 24.83 7.7 45.8 29 -9.4 15.1
15:30 1012 29.88 841 24.83 7.2 45 31 -8.9 16.1
15:35 1012 29.88 841 24.83 6.9 44.4 31 -9.3 15.3
15:40 1012 29.88 841 24.83 6.5 43.7 31 -9.5 15
15:45 1012 29.88 841 24.83 6.4 43.6 31 -9.5 14.9
15:50 1012 29.88 841 24.83 6.7 44.1 30 -9.5 14.8
15:55 1012 29.88 841 24.83 6.7 44.1 31 -9.4 15
16:00 1012 29.88 841 24.83 6.8 44.3 31 -9.1 15.6
16:05 1012 29.88 841 24.83 6.8 44.2 31 -9.2 15.4
16:10 1012 29.88 841 24.83 6.5 43.7 32 -9.2 15.4
16:15 1012 29.88 841 24.83 6.3 43.3 32 -9.2 15.5
16:20 1012 29.88 841 24.83 6.1 43 32 -9.4 15.1
16:25 1012 29.88 841 24.83 6.2 43.1 33 -8.8 16.1
16:30 1012 29.88 841 24.83 6.3 43.3 33 -9 15.7
16:35 1012 29.88 841 24.83 6.3 43.4 33 -8.7 16.3
16:40 1012 29.88 841 24.83 6.4 43.5 33 -8.8 16.1
16:45 1012 29.88 841 24.83 6.3 43.3 34 -8.4 16.9
16:50 1012 29.88 841 24.83 6.3 43.4 34 -8.6 16.6
16:55 1012 29.88 841 24.83 6.4 43.6 33 -8.7 16.4
17:00 1012 29.88 841 24.83 6.5 43.6 33 -8.6 16.5
17:05 1012 29.88 841 24.83 6.5 43.7 34 -8.4 16.9
17:10 1012 29.88 841 24.83 6.5 43.8 33 -8.7 16.3
17:15 1012 29.88 841 24.83 6.7 44.1 32 -8.7 16.3
17:20 1012 29.88 841 24.83 6.4 43.5 34 -8.2 17.2
17:25 1012 29.88 841 24.83 6.1 42.9 35 -8.3 17.1
17:30 1012 29.88 841 24.83 5.8 42.4 39 -7.2 19
17:35 1012 29.88 841 24.83 5.6 42.1 38 -7.5 18.5
17:40 1012 29.88 841 24.83 5.5 41.9 37 -8.1 17.4
17:45 1012 29.88 841 24.83 5.3 41.5 38 -8 17.6
17:50 1012 29.88 841 24.83 5.1 41.2 41 -7 19.4
17:55 1011 29.85 841 24.83 5.2 41.4 38 -8.1 17.4
18:00 1011 29.85 841 24.83 5.1 41.2 40 -7.5 18.5
18:05 1011 29.85 841 24.83 4.8 40.6 43 -6.8 19.7
18:10 1012 29.88 841 24.83 4.4 39.9 45 -6.5 20.3
18:15 1012 29.88 841 24.83 4.6 40.2 40 -7.9 17.8
18:20 1011 29.85 841 24.83 4.7 40.4 40 -7.8 18
18:25 1011 29.85 841 24.83 4.5 40.1 40 -7.9 17.8
18:30 1011 29.85 841 24.83 4.6 40.2 39 -8.4 17
18:35 1011 29.85 841 24.83 4.6 40.3 39 -8.3 17.1
18:40 1011 29.85 841 24.83 4.6 40.3 40 -8 17.6
18:45 1012 29.88 841 24.83 4.5 40.1 40 -8.1 17.5
18:50 1011 29.85 841 24.83 4.6 40.2 42 -7.1 19.2
18:55 1011 29.85 841 24.83 4.5 40.1 42 -7.5 18.6
19:00 1011 29.85 841 24.83 4.6 40.2 39 -8.3 17
19:05 1011 29.85 841 24.83 4.5 40 43 -7 19.4
19:10 1011 29.85 841 24.83 4.4 39.9 38 -8.6 16.5
19:15 1011 29.85 841 24.83 4.7 40.4 38 -8.5 16.7
19:20 1011 29.85 841 24.83 4.8 40.6 35 -9.4 15.1
19:25 1011 29.85 841 24.83 4.8 40.6 38 -8.5 16.7
19:30 1011 29.85 840 24.81 4.6 40.3 36 -9.2 15.4
19:35 1011 29.85 840 24.81 4.8 40.6 34 -9.8 14.4
19:40 1011 29.85 840 24.81 4.7 40.4 36 -9.1 15.6
19:45 1011 29.85 840 24.81 4.4 39.9 36 -9.6 14.8
19:50 1011 29.85 840 24.81 4.6 40.2 36 -9.2 15.4
19:55 1011 29.85 840 24.81 4.4 39.9 35 -9.7 14.5
20:00 1011 29.85 840 24.81 4.5 40 38 -8.7 16.4
20:05 1011 29.85 840 24.81 4.1 39.3 36 -9.7 14.5
20:10 1011 29.85 840 24.81 4.4 40 34 -10.1 13.8
20:15 1011 29.85 840 24.81 4.6 40.3 33 -10.2 13.7
20:20 1011 29.85 840 24.81 4.8 40.6 34 -9.6 14.7
20:25 1011 29.85 840 24.81 4.8 40.6 35 -9.6 14.7
20:30 1011 29.85 840 24.81 4.4 40 37 -8.9 15.9
20:35 1011 29.85 840 24.81 4.3 39.7 35 -9.9 14.2
20:40 1011 29.85 840 24.81 4.2 39.5 36 -9.6 14.7
20:45 1011 29.85 840 24.81 3.9 39.1 37 -9.5 14.9
20:50 1011 29.85 840 24.81 3.5 38.4 39 -9.3 15.2
20:55 1011 29.85 840 24.81 3.6 38.5 40 -8.8 16.2
21:00 1011 29.85 840 24.81 3.4 38.1 38 -9.7 14.6
21:05 1010 29.83 840 24.81 3.4 38.1 38 -9.7 14.6
21:10 1010 29.83 840 24.81 3.2 37.8 39 -9.6 14.8
21:15 1010 29.83 840 24.81 3.2 37.8 38 -9.9 14.2
21:20 1010 29.83 840 24.81 3.6 38.6 35 -10.4 13.3
21:25 1010 29.83 840 24.81 3.8 38.8 35 -10.3 13.4
21:30 1010 29.83 839 24.78 3.7 38.7 34 -10.6 12.9
21:35 1010 29.83 839 24.78 3.5 38.3 37 -10 14
21:40 1010 29.83 840 24.81 3 37.4 40 -9.4 15
21:45 1010 29.83 840 24.81 2.7 36.9 39 -9.9 14.1
21:50 1010 29.83 840 24.81 2.8 37.1 39 -9.9 14.1
21:55 1010 29.83 840 24.81 2.9 37.2 38 -9.9 14.1
22:00 1010 29.83 840 24.81 3.1 37.6 37 -10 13.9
22:05 1010 29.83 840 24.81 3.1 37.6 36 -10.5 13
22:10 1011 29.85 840 24.81 3.6 38.4 34 -10.7 12.7
22:15 1010 29.83 840 24.81 3.8 38.9 34 -10.8 12.6
22:20 1010 29.83 840 24.81 3.8 38.8 34 -10.8 12.6
22:25 1010 29.83 840 24.81 3.8 38.8 37 -9.6 14.7
22:30 1010 29.83 840 24.81 3.2 37.8 40 -9 15.7
22:35 1010 29.83 840 24.81 2.9 37.2 39 -9.8 14.4
22:40 1010 29.83 840 24.81 3 37.3 38 -10.1 13.8
22:45 1010 29.83 840 24.81 3.3 37.9 39 -9.4 15.1
22:50 1010 29.83 840 24.81 3.3 37.9 38 -9.8 14.3
22:55 1010 29.83 840 24.81 3.3 37.9 37 -9.9 14.1
23:00 1010 29.83 839 24.78 3.1 37.5 41 -8.9 16
23:05 1010 29.83 839 24.78 2.8 37 41 -9.1 15.5
23:10 1010 29.83 839 24.78 2.7 36.9 42 -9 15.9
23:15 1010 29.83 840 24.81 2.6 36.7 41 -9.4 15.1
23:20 1010 29.83 840 24.81 2.6 36.6 41 -9.3 15.3
23:25 1010 29.83 840 24.81 2.5 36.5 39 -10 13.9
23:30 1010 29.83 840 24.81 2.9 37.3 38 -9.9 14.2
23:35 1010 29.83 840 24.81 3.1 37.5 38 -9.8 14.3
23:40 1010 29.83 840 24.81 3.1 37.5 39 -9.8 14.4
23:45 1010 29.83 840 24.81 3.1 37.5 40 -9.3 15.2
23:50 1010 29.83 840 24.81 2.7 36.8 41 -9.3 15.2
23:55 1010 29.83 840 24.81 2.6 36.6 41 -9.4 15.1
24:00 1010 29.83 840 24.81 2.6 36.6 40 -9.6 14.7